Agana Heights, GU (96910)

12:48 PM ChST on September 03, 2015 (GMT +1000)
Maite | | Change Station
CLOSE
Current Station
Personal Weather Station
Location: Maite, GU
Elevation: 140 ft
Nearby Weather Stations

Elev 140 ft 13.48 °N, 144.76 °E | Updated 4 seconds ago

Scattered Clouds
Scattered Clouds
86.5 °F
Feels Like 102 °F
N
12.0
Wind Variable Wind from NNW
Gusts 16.0 mph

Today
High -- | Low -- °F
--% Chance of Precip.
Yesterday
High -- | Low -- °F
Precip. -- in
6:09 AM 6:31 PM
Waning Gibbous, 75% visible
Pressure 29.86 in
Visibility 10.0 miles
Clouds Scattered Clouds 1700 ft
Heat Index 102 °F
Dew Point 80 °F
Humidity 82%
Rainfall 0.00 in
Snow Depth Not available.
UV 15.3 out of 12
Pollen Not available.
Air Quality Not available.
Flu Activity Not available.
METAR PGUM 030154Z 34009KT 10SM SCT017 31/26 A2988 RMK AO2 SLP111 T03060256
Pressure 29.86 in
Visibility 10.0 miles
Clouds Scattered Clouds 1700 ft
Heat Index 102 °F
Dew Point 80 °F
Humidity 82%
Rainfall 0.00 in
Snow Depth Not available.
UV 15.3 out of 12
Pollen Not available.
Air Quality Not available.
Flu Activity Not available.
METAR PGUM 030154Z 34009KT 10SM SCT017 31/26 A2988 RMK AO2 SLP111 T03060256

10-Day Weather Forecast

×

Almanac

Astronomy

Sep. 03, 2015 Rise Set
Actual Time
Civil Twilight
Nautical Twilight
Astronomical Twilight
Moon
Length of Visible Light
Length of Day
Tomorrow will be .
, % of the Moon is Illuminated

Today's Extremes

State Highs State Lows

Community

WunderPhotos

Upload Photos

1,851,879 photos uploaded!

WunderBlogs® & News

Nearby

Air Quality

  Air Quality AQ Index Pollutant
Not available.

Snow Depth

Station Depth Elevation

Earthquake Activity

City Distance Mag. Time & Date
Minimum magnitude displayed is 2.5.

Coastal Water Temperatures

Place Temperature

Stations

Nearby Weather Stations

Station Location Temp. Windchill Dew Point Humidity Wind Precip. Elev Updated Type